Time;durP1;ratioP1;P1;durP2;ratioP2;P2;SDS_P1;SDS_P2;PMS_P1;PMS_P2;Temp;Humidity;BMP_temperature;BMP_pressure;BME280_temperature;BME280_humidity;BME280_pressure;Samples;Min_cycle;Max_cycle;Signal;HPM_P1;HPM_P2
2023/09/06 00:02:03;;;;;;;6.15;4.03;;;16.50;99.90;;;;;;5033304;28;20030;-76
2023/09/06 00:04:29;;;;;;;5.20;4.03;;;16.40;99.90;;;;;;5033269;28;20052;-76
2023/09/06 00:06:55;;;;;;;7.43;4.20;;;16.40;99.90;;;;;;5033471;28;20463;-76
2023/09/06 00:09:21;;;;;;;7.30;3.80;;;16.40;99.90;;;;;;5032860;28;20553;-77
2023/09/06 00:11:46;;;;;;;5.53;4.93;;;16.30;99.90;;;;;;5036476;28;20033;-77
2023/09/06 00:14:12;;;;;;;10.02;5.03;;;16.30;99.90;;;;;;5037199;28;20033;-76
2023/09/06 00:16:38;;;;;;;5.13;3.95;;;16.30;99.90;;;;;;5037031;28;20040;-76
2023/09/06 00:19:03;;;;;;;5.28;4.30;;;16.30;99.90;;;;;;5036703;28;20151;-76
2023/09/06 00:21:29;;;;;;;8.00;4.30;;;16.20;99.90;;;;;;5037043;28;20452;-76
2023/09/06 00:23:55;;;;;;;6.10;4.75;;;16.20;99.90;;;;;;5036424;28;20033;-76
2023/09/06 00:26:21;;;;;;;5.93;4.25;;;16.20;99.90;;;;;;5035940;28;20022;-76
2023/09/06 00:28:47;;;;;;;5.97;4.68;;;16.20;99.90;;;;;;5036487;28;20031;-76
2023/09/06 00:31:12;;;;;;;7.50;5.00;;;16.10;99.90;;;;;;5036020;28;20543;-77
2023/09/06 00:33:38;;;;;;;6.53;4.65;;;16.10;99.90;;;;;;5036581;28;20037;-76
2023/09/06 00:36:05;;;;;;;6.68;4.97;;;16.10;99.90;;;;;;5036697;28;20041;-76
2023/09/06 00:38:30;;;;;;;5.65;4.50;;;16.10;99.90;;;;;;5036171;28;20091;-76
2023/09/06 00:40:57;;;;;;;5.13;4.63;;;16.00;99.90;;;;;;5036130;28;20480;-76
2023/09/06 00:43:22;;;;;;;6.63;5.07;;;16.00;99.90;;;;;;5035870;28;20036;-76
2023/09/06 00:45:50;;;;;;;6.35;4.95;;;16.00;99.90;;;;;;5036316;28;20034;-76
2023/09/06 00:48:19;;;;;;;6.13;4.90;;;16.00;99.90;;;;;;5036110;28;20033;-76
2023/09/06 00:50:52;;;;;;;5.28;4.65;;;15.90;99.90;;;;;;5036506;28;20022;-76
2023/09/06 00:53:19;;;;;;;6.13;4.78;;;16.00;99.90;;;;;;5036396;28;20036;-76
2023/09/06 00:55:45;;;;;;;7.18;5.20;;;15.90;99.90;;;;;;5035934;28;20026;-76
2023/09/06 00:58:15;;;;;;;8.20;5.10;;;16.00;99.90;;;;;;5035865;28;20551;-76
2023/09/06 01:00:43;;;;;;;7.35;5.43;;;15.90;99.90;;;;;;5036022;28;20116;-76
2023/09/06 01:03:09;;;;;;;6.80;5.03;;;16.00;99.90;;;;;;5035111;28;20049;-76
2023/09/06 01:06:00;;;;;;;8.93;5.45;;;15.90;99.90;;;;;;5035793;28;20467;-75
2023/09/06 01:08:32;;;;;;;8.68;5.00;;;15.90;99.90;;;;;;5034952;28;20018;-76
2023/09/06 01:11:21;;;;;;;6.00;4.90;;;15.80;99.90;;;;;;5036144;28;20029;-76
2023/09/06 01:13:52;;;;;;;8.30;5.45;;;15.80;99.90;;;;;;5035116;28;20060;-76
2023/09/06 01:16:42;;;;;;;5.70;5.05;;;15.80;99.90;;;;;;5035760;28;20493;-76
2023/09/06 01:19:11;;;;;;;8.70;5.57;;;15.90;99.90;;;;;;5035923;28;20025;-76
2023/09/06 01:21:47;;;;;;;8.90;5.32;;;15.80;99.90;;;;;;5035637;28;20080;-76
2023/09/06 01:24:15;;;;;;;6.82;5.65;;;15.80;99.90;;;;;;5034988;28;20030;-76
2023/09/06 01:26:41;;;;;;;6.88;5.28;;;15.80;99.90;;;;;;5035799;28;20336;-75
2023/09/06 01:29:07;;;;;;;7.80;5.80;;;15.80;99.90;;;;;;5035344;28;20033;-75
2023/09/06 01:31:33;;;;;;;9.23;5.65;;;15.70;99.90;;;;;;5035480;28;20467;-76
2023/09/06 01:33:59;;;;;;;8.05;5.72;;;15.70;99.90;;;;;;5034515;28;20029;-75
2023/09/06 01:36:24;;;;;;;7.25;5.25;;;15.60;99.90;;;;;;5035261;28;20215;-75
2023/09/06 01:38:51;;;;;;;7.97;5.57;;;15.60;99.90;;;;;;5035379;28;20026;-75
2023/09/06 01:41:17;;;;;;;8.68;5.85;;;15.60;99.90;;;;;;5035533;28;20033;-75
2023/09/06 01:43:43;;;;;;;8.32;6.00;;;15.60;99.90;;;;;;5035284;28;20056;-75
2023/09/06 01:46:08;;;;;;;5.85;4.63;;;15.60;99.90;;;;;;5035170;28;20380;-75
2023/09/06 01:48:36;;;;;;;6.53;5.18;;;15.60;99.90;;;;;;5035063;28;20053;-74
2023/09/06 01:51:03;;;;;;;6.28;4.90;;;15.60;99.90;;;;;;5035052;28;20036;-75
2023/09/06 01:53:30;;;;;;;7.32;5.63;;;15.50;99.90;;;;;;5035010;28;20083;-76
2023/09/06 01:55:56;;;;;;;8.45;5.55;;;15.50;99.90;;;;;;5034581;28;20057;-75
2023/09/06 01:58:21;;;;;;;5.82;4.95;;;15.50;99.90;;;;;;5034832;28;20056;-75
2023/09/06 02:00:47;;;;;;;5.93;5.30;;;15.50;99.90;;;;;;5034827;28;20543;-75
2023/09/06 02:03:17;;;;;;;7.47;5.47;;;15.40;99.90;;;;;;5034075;28;20056;-75
2023/09/06 02:05:43;;;;;;;6.13;5.43;;;15.40;99.90;;;;;;5034867;28;20061;-75
2023/09/06 02:08:09;;;;;;;6.97;5.22;;;15.50;99.90;;;;;;5034358;28;20026;-75
2023/09/06 02:10:35;;;;;;;7.97;5.45;;;15.50;99.90;;;;;;5034739;28;20510;-75
2023/09/06 02:13:00;;;;;;;5.25;4.75;;;15.90;99.90;;;;;;5033748;28;20061;-75
2023/09/06 02:15:30;;;;;;;6.78;5.18;;;15.30;99.90;;;;;;5034478;28;20068;-75
2023/09/06 02:17:56;;;;;;;7.72;5.38;;;15.20;99.90;;;;;;5034422;28;20075;-75
2023/09/06 02:20:22;;;;;;;8.60;5.65;;;15.20;99.90;;;;;;5034539;28;20037;-75
2023/09/06 02:22:55;;;;;;;7.03;4.80;;;15.20;99.90;;;;;;5034315;28;20032;-75
2023/09/06 02:25:24;;;;;;;6.03;5.22;;;15.20;99.90;;;;;;5034683;28;20380;-75
2023/09/06 02:27:50;;;;;;;7.22;5.35;;;15.10;99.90;;;;;;5034700;28;20376;-75
2023/09/06 02:30:17;;;;;;;9.07;5.00;;;15.10;99.90;;;;;;5034699;28;20017;-75
2023/09/06 02:32:43;;;;;;;5.90;5.05;;;15.10;99.90;;;;;;5033929;28;20078;-75
2023/09/06 02:35:09;;;;;;;8.20;6.28;;;15.10;99.90;;;;;;5034150;28;20022;-74
2023/09/06 02:37:35;;;;;;;6.65;5.47;;;15.10;99.90;;;;;;5033833;28;20034;-75
2023/09/06 02:40:07;;;;;;;6.57;5.32;;;15.10;99.90;;;;;;5034458;28;20037;-75
2023/09/06 02:42:32;;;;;;;6.00;5.13;;;15.00;99.90;;;;;;5034276;28;20060;-75
2023/09/06 02:44:58;;;;;;;7.22;5.00;;;14.30;99.90;;;;;;5034503;28;20134;-75
2023/09/06 02:47:28;;;;;;;7.32;5.10;;;15.10;99.90;;;;;;5033903;28;20160;-75
2023/09/06 02:49:55;;;;;;;7.68;5.82;;;14.90;99.90;;;;;;5034077;28;20468;-75
2023/09/06 02:52:28;;;;;;;6.88;5.57;;;14.90;99.90;;;;;;5034053;28;20471;-74
2023/09/06 02:54:57;;;;;;;7.40;5.03;;;15.00;99.90;;;;;;5034320;28;20036;-75
2023/09/06 02:57:24;;;;;;;5.82;5.18;;;15.50;99.90;;;;;;5033480;28;20032;-75
2023/09/06 02:59:51;;;;;;;10.02;5.90;;;14.90;99.90;;;;;;5033876;28;20517;-75
2023/09/06 03:02:19;;;;;;;8.82;7.20;;;14.90;99.90;;;;;;5033813;28;20108;-75
2023/09/06 03:04:45;;;;;;;9.88;6.35;;;14.60;99.90;;;;;;5034213;28;20033;-75
2023/09/06 03:07:10;;;;;;;9.88;6.75;;;14.90;99.90;;;;;;5033773;28;20076;-75
2023/09/06 03:09:38;;;;;;;7.82;5.63;;;14.90;99.90;;;;;;5033795;28;20103;-75
2023/09/06 03:12:11;;;;;;;7.38;5.63;;;14.80;99.90;;;;;;5033471;28;20021;-75
2023/09/06 03:14:43;;;;;;;10.25;6.38;;;14.80;99.90;;;;;;5033483;28;20084;-75
2023/09/06 03:17:09;;;;;;;7.93;5.95;;;14.70;99.90;;;;;;5033828;28;20064;-75
2023/09/06 03:19:40;;;;;;;6.50;5.30;;;14.80;99.90;;;;;;5034015;28;20053;-75
2023/09/06 03:22:09;;;;;;;6.85;5.72;;;14.80;99.90;;;;;;5034073;28;20105;-74
2023/09/06 03:24:36;;;;;;;12.30;7.25;;;14.50;99.90;;;;;;5033705;28;20064;-75
2023/09/06 03:27:07;;;;;;;8.30;6.03;;;14.70;99.90;;;;;;5034045;28;20023;-75
2023/09/06 03:29:36;;;;;;;8.80;5.80;;;14.60;99.90;;;;;;5033727;28;20022;-75
2023/09/06 03:32:04;;;;;;;7.85;6.40;;;14.80;99.90;;;;;;5033535;28;20545;-75
2023/09/06 03:34:30;;;;;;;9.10;6.60;;;15.30;99.90;;;;;;5033083;28;20092;-75
2023/09/06 03:36:57;;;;;;;8.73;6.45;;;14.70;99.90;;;;;;5033590;28;20045;-75
2023/09/06 03:39:28;;;;;;;11.85;6.57;;;14.60;99.90;;;;;;5033912;28;20034;-75
2023/09/06 03:41:56;;;;;;;11.85;7.22;;;14.60;99.90;;;;;;5033157;28;20468;-75
2023/09/06 03:44:21;;;;;;;8.55;5.93;;;14.60;99.90;;;;;;5033591;28;20029;-75
2023/09/06 03:46:48;;;;;;;8.00;6.03;;;14.60;99.90;;;;;;5037093;28;20375;-75
2023/09/06 03:49:15;;;;;;;11.65;6.18;;;14.70;99.90;;;;;;5037480;28;20384;-75
2023/09/06 03:51:42;;;;;;;10.45;6.82;;;14.60;99.90;;;;;;5036978;28;20475;-76
2023/09/06 03:54:09;;;;;;;9.23;6.20;;;14.60;99.90;;;;;;5036872;28;20468;-75
2023/09/06 03:56:38;;;;;;;10.05;7.20;;;14.60;99.90;;;;;;5037457;28;20032;-75
2023/09/06 03:59:04;;;;;;;9.45;7.00;;;14.50;99.90;;;;;;5037405;28;20430;-75
2023/09/06 04:01:32;;;;;;;9.88;7.38;;;14.60;99.90;;;;;;5036783;28;20128;-75
2023/09/06 04:04:00;;;;;;;8.77;6.72;;;14.60;99.90;;;;;;5036008;28;20050;-75
2023/09/06 04:06:28;;;;;;;8.30;6.75;;;14.60;99.90;;;;;;5037312;28;20021;-75
2023/09/06 04:08:55;;;;;;;10.88;6.47;;;14.60;99.90;;;;;;5037022;28;20022;-75
2023/09/06 04:11:20;;;;;;;7.25;6.32;;;14.60;99.90;;;;;;5035993;28;20022;-75
2023/09/06 04:13:46;;;;;;;9.02;7.28;;;14.60;99.90;;;;;;5037154;28;20029;-75
2023/09/06 04:16:13;;;;;;;8.98;7.20;;;14.50;99.90;;;;;;5036886;28;20040;-75
2023/09/06 04:18:38;;;;;;;7.80;6.93;;;14.50;99.90;;;;;;5036839;28;20037;-75
2023/09/06 04:21:08;;;;;;;7.50;6.70;;;14.50;99.90;;;;;;5036999;28;20037;-75
2023/09/06 04:23:36;;;;;;;8.93;7.60;;;14.50;99.90;;;;;;5036729;28;20064;-75
2023/09/06 04:26:03;;;;;;;13.43;7.97;;;14.50;99.90;;;;;;5036565;28;20034;-75
2023/09/06 04:28:28;;;;;;;8.63;6.53;;;14.50;99.90;;;;;;5036644;28;20029;-75
2023/09/06 04:30:54;;;;;;;10.73;7.25;;;14.50;99.90;;;;;;5036521;28;20456;-75
2023/09/06 04:33:20;;;;;;;8.10;6.47;;;14.50;99.90;;;;;;5036803;28;20029;-75
2023/09/06 04:35:47;;;;;;;8.55;7.25;;;14.50;99.90;;;;;;5036491;28;20379;-75
2023/09/06 04:38:14;;;;;;;11.93;8.20;;;14.40;99.90;;;;;;5036488;28;20034;-75
2023/09/06 04:40:44;;;;;;;10.50;8.18;;;14.50;99.90;;;;;;5036462;28;20036;-75
2023/09/06 04:43:11;;;;;;;11.77;9.23;;;14.50;99.90;;;;;;5035445;28;20018;-76
2023/09/06 04:45:37;;;;;;;12.32;9.43;;;14.50;99.90;;;;;;5036197;28;20471;-75
2023/09/06 04:48:05;;;;;;;16.55;10.45;;;14.50;99.90;;;;;;5036471;28;20345;-75
2023/09/06 04:50:31;;;;;;;12.95;9.98;;;14.60;99.90;;;;;;5035818;28;20365;-74
2023/09/06 04:52:57;;;;;;;17.13;11.60;;;14.60;99.90;;;;;;5035994;28;20399;-75
2023/09/06 04:55:23;;;;;;;15.32;10.57;;;14.60;99.90;;;;;;5036140;28;20435;-75
2023/09/06 04:57:49;;;;;;;12.82;10.57;;;14.60;99.90;;;;;;5036009;28;20161;-75
2023/09/06 05:02:46;;;;;;;16.33;11.90;;;14.70;99.90;;;;;;5035176;28;20053;-75
2023/09/06 05:05:14;;;;;;;13.43;10.00;;;14.80;99.90;;;;;;5035105;28;20033;-75
2023/09/06 05:07:41;;;;;;;14.32;11.45;;;14.80;99.90;;;;;;5035906;28;20083;-75
2023/09/06 05:10:09;;;;;;;16.20;10.68;;;14.90;99.90;;;;;;5035843;28;20048;-75
2023/09/06 05:12:35;;;;;;;15.25;10.55;;;14.90;99.90;;;;;;5036037;28;20057;-75
2023/09/06 05:15:01;;;;;;;12.70;9.85;;;14.90;99.90;;;;;;5035648;28;20079;-74
2023/09/06 05:17:27;;;;;;;16.40;11.02;;;15.00;99.90;;;;;;5035989;28;20025;-75
2023/09/06 05:19:53;;;;;;;16.88;11.20;;;15.00;99.90;;;;;;5035719;28;20029;-74
2023/09/06 05:22:19;;;;;;;16.00;10.82;;;15.10;99.90;;;;;;5035699;28;20028;-74
2023/09/06 05:24:46;;;;;;;13.30;11.20;;;15.10;99.90;;;;;;5034557;28;20060;-74
2023/09/06 05:27:12;;;;;;;14.25;11.65;;;15.10;99.90;;;;;;5035506;28;20044;-74
2023/09/06 05:29:38;;;;;;;15.05;11.00;;;15.30;99.90;;;;;;5035654;28;20074;-75
2023/09/06 05:32:03;;;;;;;14.40;11.77;;;15.40;99.90;;;;;;5035290;28;20120;-75
2023/09/06 05:34:29;;;;;;;14.30;11.80;;;15.50;99.90;;;;;;5035393;28;20040;-75
2023/09/06 05:36:55;;;;;;;12.90;10.50;;;15.60;99.90;;;;;;5034972;28;20029;-75
2023/09/06 05:39:21;;;;;;;16.02;11.98;;;15.60;99.90;;;;;;5035195;28;20026;-75
2023/09/06 05:41:48;;;;;;;14.98;11.90;;;15.70;99.90;;;;;;5035223;28;20379;-76
2023/09/06 05:44:13;;;;;;;21.27;12.48;;;15.80;99.90;;;;;;5035232;28;20033;-76
2023/09/06 05:46:39;;;;;;;15.27;12.88;;;15.90;99.90;;;;;;5035422;28;20036;-76
2023/09/06 05:49:05;;;;;;;14.90;10.85;;;16.20;99.90;;;;;;5034702;28;20017;-76
2023/09/06 05:51:31;;;;;;;11.73;9.10;;;16.90;99.90;;;;;;5035312;28;20029;-75
2023/09/06 05:53:58;;;;;;;10.13;6.85;;;18.10;99.90;;;;;;5034785;28;20025;-75
2023/09/06 05:56:24;;;;;;;9.57;6.30;;;19.20;99.90;;;;;;5034348;28;20037;-76
2023/09/06 05:58:50;;;;;;;5.47;4.28;;;20.30;99.90;;;;;;5034778;28;20494;-74
2023/09/06 06:01:17;;;;;;;4.70;3.95;;;22.10;99.90;;;;;;5034458;28;20034;-74
2023/09/06 06:03:43;;;;;;;7.78;4.15;;;23.50;72.60;;;;;;5033809;28;20099;-74
2023/09/06 06:06:13;;;;;;;6.63;4.47;;;24.80;99.90;;;;;;5023162;28;20439;-75
2023/09/06 06:08:39;;;;;;;9.75;4.80;;;24.60;99.90;;;;;;5025451;28;20025;-75
2023/09/06 06:11:05;;;;;;;8.15;3.92;;;24.60;99.90;;;;;;5030182;28;20036;-75
2023/09/06 06:13:30;;;;;;;6.47;4.03;;;25.00;99.90;;;;;;5033590;28;20111;-75
2023/09/06 06:15:56;;;;;;;6.35;3.80;;;25.80;38.90;;;;;;5034204;28;20502;-75
2023/09/06 06:18:25;;;;;;;9.13;3.80;;;26.30;1.00;;;;;;5034076;28;20037;-75
2023/09/06 06:20:51;;;;;;;9.27;4.80;;;25.70;99.10;;;;;;5025584;28;20030;-75
2023/09/06 06:23:17;;;;;;;5.80;3.80;;;26.00;1.00;;;;;;5033194;28;20228;-76
2023/09/06 06:25:42;;;;;;;8.23;3.67;;;26.60;20.60;;;;;;5051196;28;20146;-75
2023/09/06 06:28:08;;;;;;;5.00;3.30;;;28.00;99.90;;;;;;5031262;28;20121;-75
2023/09/06 06:30:34;;;;;;;10.30;4.00;;;28.40;1.00;;;;;;5015089;28;20088;-75
2023/09/06 06:33:00;;;;;;;5.43;3.58;;;;;;;;;;5012952;28;20022;-76
2023/09/06 06:35:26;;;;;;;7.70;3.53;;;;;;;;;;5021646;28;20073;-76
2023/09/06 06:37:52;;;;;;;8.90;3.45;;;;;;;;;;5034731;28;20098;-75
2023/09/06 06:40:18;;;;;;;5.10;3.63;;;29.50;99.90;;;;;;5030129;28;20052;-76
2023/09/06 06:42:45;;;;;;;6.32;3.33;;;29.20;1.00;;;;;;5020416;28;20030;-75
2023/09/06 06:45:11;;;;;;;4.97;3.28;;;28.90;1.00;;;;;;5024868;28;20096;-75
2023/09/06 06:47:37;;;;;;;4.75;3.38;;;29.10;1.00;;;;;;5034915;28;20029;-76
2023/09/06 06:50:06;;;;;;;6.68;3.25;;;29.10;1.00;;;;;;5014245;28;20034;-76
2023/09/06 06:52:34;;;;;;;6.05;3.25;;;28.90;1.00;;;;;;5015898;28;20034;-76
2023/09/06 06:55:00;;;;;;;5.03;2.90;;;29.00;99.90;;;;;;5022161;28;20025;-76
2023/09/06 06:57:26;;;;;;;8.10;2.90;;;29.20;99.90;;;;;;5026327;28;20467;-76
2023/09/06 06:59:51;;;;;;;4.63;2.80;;;29.60;1.00;;;;;;5028327;28;20037;-77
2023/09/06 07:02:17;;;;;;;4.47;2.70;;;30.20;99.90;;;;;;5032971;28;20384;-77
2023/09/06 07:04:43;;;;;;;4.80;2.85;;;31.40;99.90;;;;;;5034927;28;20037;-77
2023/09/06 07:07:08;;;;;;;5.10;2.70;;;31.00;99.90;;;;;;5033364;28;20029;-76
2023/09/06 07:09:34;;;;;;;5.18;2.72;;;30.40;99.90;;;;;;5027813;28;20033;-77
2023/09/06 07:11:59;;;;;;;7.40;2.58;;;29.90;99.90;;;;;;5028282;28;20022;-76
2023/09/06 07:14:25;;;;;;;8.10;3.00;;;30.70;99.90;;;;;;5025850;28;20044;-76
2023/09/06 07:16:51;;;;;;;5.68;2.88;;;30.90;99.90;;;;;;5035369;28;20037;-76
2023/09/06 07:19:16;;;;;;;6.63;2.90;;;30.90;99.90;;;;;;5034028;28;20033;-77
2023/09/06 07:21:44;;;;;;;4.80;3.08;;;30.50;99.90;;;;;;5034637;28;20038;-76
2023/09/06 07:24:13;;;;;;;8.70;2.95;;;30.80;99.90;;;;;;5020277;28;20112;-77
2023/09/06 07:26:38;;;;;;;4.93;3.03;;;31.50;99.90;;;;;;5027797;28;20030;-76
2023/09/06 07:29:04;;;;;;;10.48;3.20;;;31.20;99.90;;;;;;5034516;28;20032;-77
2023/09/06 07:31:30;;;;;;;8.25;3.42;;;32.40;99.90;;;;;;5027658;28;20047;-76
2023/09/06 07:33:55;;;;;;;8.32;3.28;;;32.40;53.50;;;;;;5032625;28;20113;-78
2023/09/06 07:36:21;;;;;;;10.45;2.83;;;31.40;96.40;;;;;;5034141;28;20029;-77
2023/09/06 07:38:47;;;;;;;5.70;2.75;;;32.10;99.90;;;;;;5018985;28;20460;-77
2023/09/06 07:41:13;;;;;;;4.72;3.10;;;32.00;99.90;;;;;;5025777;28;20033;-78
2023/09/06 07:43:39;;;;;;;6.03;2.60;;;32.50;69.50;;;;;;5022047;28;20483;-77
2023/09/06 07:46:08;;;;;;;4.32;2.75;;;33.80;13.30;;;;;;5026803;28;20030;-78
2023/09/06 07:48:35;;;;;;;9.98;2.70;;;33.50;1.00;;;;;;5030664;28;20060;-78
2023/09/06 07:51:04;;;;;;;7.15;2.67;;;33.00;1.00;;;;;;5018252;28;20495;-78
2023/09/06 07:53:30;;;;;;;10.07;2.70;;;33.00;1.00;;;;;;5027133;28;20144;-77
2023/09/06 07:55:56;;;;;;;7.25;2.50;;;33.00;1.00;;;;;;5022099;28;20133;-76
2023/09/06 07:58:22;;;;;;;8.82;2.92;;;33.30;1.00;;;;;;5028913;28;20053;-78
2023/09/06 08:00:49;;;;;;;5.30;3.17;;;33.30;1.00;;;;;;5021723;28;20053;-77
2023/09/06 08:03:15;;;;;;;9.77;2.75;;;33.50;1.00;;;;;;5019521;28;20050;-76
2023/09/06 08:05:41;;;;;;;8.13;3.33;;;33.60;1.00;;;;;;5021497;28;20021;-76
2023/09/06 08:08:09;;;;;;;9.48;3.00;;;33.40;1.00;;;;;;5021304;28;20025;-77
2023/09/06 08:10:37;;;;;;;4.38;2.67;;;33.30;1.00;;;;;;5017434;28;20056;-77
2023/09/06 08:13:03;;;;;;;7.00;2.70;;;33.30;1.00;;;;;;5019633;28;20038;-76
2023/09/06 08:15:30;;;;;;;4.82;2.80;;;33.60;1.00;;;;;;5021660;28;20751;-77
2023/09/06 08:17:56;;;;;;;5.75;2.78;;;32.50;1.00;;;;;;5019890;28;20029;-76
2023/09/06 08:20:22;;;;;;;4.75;2.80;;;32.70;1.00;;;;;;5015094;28;20034;-76
2023/09/06 08:22:48;;;;;;;7.47;2.70;;;32.50;1.00;;;;;;5014281;28;20183;-76
2023/09/06 08:25:14;;;;;;;3.47;2.70;;;32.70;1.00;;;;;;5019249;28;20160;-77
2023/09/06 08:27:40;;;;;;;3.58;2.80;;;32.60;1.00;;;;;;5014186;28;20026;-77
2023/09/06 08:30:10;;;;;;;4.07;2.50;;;32.10;1.00;;;;;;5017258;28;20026;-78
2023/09/06 08:32:37;;;;;;;6.80;2.72;;;32.50;1.00;;;;;;5015527;28;20419;-75
2023/09/06 08:35:04;;;;;;;3.53;2.50;;;32.10;1.00;;;;;;5014919;28;20511;-78
2023/09/06 08:37:30;;;;;;;4.03;2.38;;;33.50;1.00;;;;;;5013356;28;20030;-79
2023/09/06 08:39:56;;;;;;;3.53;2.30;;;33.70;1.00;;;;;;5013938;28;20498;-77
2023/09/06 08:42:23;;;;;;;3.40;2.58;;;33.90;1.00;;;;;;5013864;28;20068;-78
2023/09/06 08:44:50;;;;;;;5.88;2.50;;;33.30;1.00;;;;;;5012341;28;20034;-77
2023/09/06 08:47:19;;;;;;;4.82;2.63;;;33.70;1.00;;;;;;5020867;28;20083;-79
2023/09/06 08:49:49;;;;;;;2.75;2.22;;;33.80;1.00;;;;;;5023065;28;20026;-79
2023/09/06 08:52:15;;;;;;;3.67;2.28;;;33.50;1.00;;;;;;5018848;28;20051;-77
2023/09/06 08:54:44;;;;;;;5.15;2.42;;;33.40;1.00;;;;;;5016932;28;20025;-79
2023/09/06 08:57:11;;;;;;;3.60;2.53;;;33.40;1.00;;;;;;5010952;28;20419;-76
2023/09/06 08:59:38;;;;;;;3.58;2.53;;;34.00;1.00;;;;;;5023375;28;20048;-79
2023/09/06 09:02:04;;;;;;;3.90;2.45;;;34.50;1.00;;;;;;5021047;28;20483;-79
2023/09/06 09:04:31;;;;;;;4.38;2.55;;;34.60;1.00;;;;;;5020620;28;20107;-78
2023/09/06 09:06:57;;;;;;;3.15;2.30;;;34.50;1.00;;;;;;5016141;28;20026;-78
2023/09/06 09:09:24;;;;;;;3.60;2.80;;;33.60;1.00;;;;;;5017263;28;20117;-79
2023/09/06 09:11:51;;;;;;;5.70;2.60;;;34.40;1.00;;;;;;5025208;28;20029;-78
2023/09/06 09:14:21;;;;;;;4.18;2.35;;;34.70;1.00;;;;;;5014941;28;20541;-78
2023/09/06 09:17:01;;;;;;;6.10;2.63;;;33.90;1.00;;;;;;5020843;28;20117;-78
2023/09/06 09:19:27;;;;;;;5.10;2.38;;;33.50;1.00;;;;;;5012148;28;20065;-78
2023/09/06 09:21:55;;;;;;;5.97;2.40;;;33.40;1.00;;;;;;5019856;28;20558;-77
2023/09/06 09:24:28;;;;;;;12.43;2.72;;;33.70;1.00;;;;;;5025889;28;20068;-78
2023/09/06 09:26:56;;;;;;;4.93;2.20;;;33.30;1.00;;;;;;5044277;28;20029;-78
2023/09/06 09:29:23;;;;;;;5.72;1.98;;;33.50;1.00;;;;;;5052010;28;20114;-79
2023/09/06 09:31:49;;;;;;;2.13;1.92;;;33.00;1.00;;;;;;5020826;28;20041;-79
2023/09/06 09:34:14;;;;;;;2.58;1.80;;;33.10;1.00;;;;;;5016555;28;20032;-80
2023/09/06 09:36:51;;;;;;;3.05;2.08;;;33.50;1.00;;;;;;5026161;28;20030;-79
2023/09/06 09:39:18;;;;;;;4.88;2.20;;;34.00;1.00;;;;;;5018519;28;20045;-78
2023/09/06 09:41:44;;;;;;;4.53;2.15;;;34.50;1.00;;;;;;5021867;28;20493;-79
2023/09/06 09:44:13;;;;;;;1.90;1.67;;;33.90;1.00;;;;;;5027917;28;20501;-79
2023/09/06 09:46:41;;;;;;;9.88;2.80;;;34.50;1.00;;;;;;5021190;28;20029;-77
2023/09/06 09:49:10;;;;;;;5.20;1.88;;;34.00;1.00;;;;;;5019274;28;20038;-80
2023/09/06 09:51:36;;;;;;;2.53;2.13;;;33.40;1.00;;;;;;5017931;28;20026;-79
2023/09/06 09:54:04;;;;;;;2.75;1.85;;;33.50;1.00;;;;;;5027562;28;20539;-79
2023/09/06 09:56:32;;;;;;;3.72;1.98;;;33.80;1.00;;;;;;5028157;28;20116;-80
2023/09/06 09:59:01;;;;;;;5.03;2.05;;;33.50;1.00;;;;;;5030972;28;20495;-79
2023/09/06 10:01:28;;;;;;;2.22;1.70;;;33.00;1.00;;;;;;5018897;28;20030;-79
2023/09/06 10:03:56;;;;;;;3.38;2.03;;;33.50;1.00;;;;;;5026864;28;20041;-79
2023/09/06 10:06:26;;;;;;;5.28;2.10;;;33.80;1.00;;;;;;5016181;28;20034;-79
2023/09/06 10:08:55;;;;;;;4.32;1.90;;;34.00;1.00;;;;;;5016196;28;20068;-79
2023/09/06 10:11:21;;;;;;;2.63;2.20;;;33.50;1.00;;;;;;5032448;28;20029;-79
2023/09/06 10:13:49;;;;;;;2.55;1.80;;;33.70;1.00;;;;;;5018894;28;20645;-76
2023/09/06 10:16:15;;;;;;;4.82;2.00;;;34.20;1.00;;;;;;5016270;28;20034;-78
2023/09/06 10:18:42;;;;;;;4.82;2.00;;;34.00;1.00;;;;;;5017144;28;20038;-79
2023/09/06 10:21:07;;;;;;;4.22;1.80;;;34.50;1.00;;;;;;5013481;28;20029;-79
2023/09/06 10:23:41;;;;;;;3.92;2.00;;;34.60;1.00;;;;;;5013836;28;20026;-79
2023/09/06 10:26:07;;;;;;;2.65;2.08;;;35.00;1.00;;;;;;5014205;28;20022;-79
2023/09/06 10:28:33;;;;;;;4.18;1.70;;;34.80;1.00;;;;;;5012996;28;20522;-79
2023/09/06 10:31:07;;;;;;;2.78;1.80;;;35.10;1.00;;;;;;5024869;28;21872;-79
2023/09/06 10:33:42;;;;;;;3.17;2.17;;;35.30;1.00;;;;;;5028929;28;20043;-79
2023/09/06 10:36:09;;;;;;;2.03;1.80;;;34.70;1.00;;;;;;5021618;28;20039;-75
2023/09/06 10:41:31;;;;;;;2.63;1.98;;;34.10;1.00;;;;;;5086101;27;20431;-80
2023/09/06 10:46:40;;;;;;;2.42;1.92;;;33.80;1.00;;;;;;5149275;27;20751;-80
2023/09/06 10:49:23;;;;;;;3.97;1.80;;;33.90;1.00;;;;;;5139482;27;20031;-81
2023/09/06 10:52:08;;;;;;;;;;;34.10;1.00;;;;;;5145916;27;20373;-80
2023/09/06 10:54:40;;;;;;;3.17;2.10;;;33.80;1.00;;;;;;5147527;27;19908;-80
2023/09/06 10:57:08;;;;;;;2.83;2.30;;;33.80;1.00;;;;;;5150165;27;20071;-80
2023/09/06 10:59:38;;;;;;;2.92;1.90;;;33.30;1.00;;;;;;5151240;27;20091;-81
2023/09/06 11:05:11;;;;;;;2.45;2.10;;;32.80;1.00;;;;;;5063928;28;20401;-79
2023/09/06 11:07:41;;;;;;;3.65;2.05;;;31.60;1.00;;;;;;5049357;28;20067;-77
2023/09/06 11:10:07;;;;;;;2.72;2.38;;;31.70;1.00;;;;;;5055192;28;20027;-76
2023/09/06 11:12:34;;;;;;;4.88;2.45;;;31.80;1.00;;;;;;5056076;28;20089;-78
2023/09/06 11:15:00;;;;;;;4.03;2.20;;;31.90;1.00;;;;;;5060017;28;20124;-79
2023/09/06 11:17:26;;;;;;;5.15;2.05;;;31.90;1.00;;;;;;5052287;28;20103;-80
2023/09/06 11:19:52;;;;;;;3.40;2.47;;;31.70;1.00;;;;;;5051100;28;20030;-79
2023/09/06 11:22:19;;;;;;;4.18;2.35;;;31.90;1.00;;;;;;5052261;28;20112;-80
2023/09/06 11:24:45;;;;;;;13.25;2.70;;;31.50;1.00;;;;;;5054306;28;20025;-80
2023/09/06 11:27:29;;;;;;;2.50;2.17;;;31.50;1.00;;;;;;5047885;28;20029;-79
2023/09/06 11:29:58;;;;;;;3.80;2.15;;;31.50;1.00;;;;;;5052454;28;20067;-80
2023/09/06 11:32:23;;;;;;;3.88;2.28;;;31.70;1.00;;;;;;5051346;28;20490;-80
2023/09/06 11:34:49;;;;;;;2.30;1.85;;;31.50;1.00;;;;;;5049488;28;20040;-79
2023/09/06 11:37:17;;;;;;;3.03;2.28;;;31.50;1.00;;;;;;5046040;28;20041;-79
2023/09/06 11:39:45;;;;;;;3.40;2.17;;;31.50;1.00;;;;;;5053195;28;20426;-80
2023/09/06 11:42:14;;;;;;;5.20;2.33;;;31.40;1.00;;;;;;5035723;28;20483;-77
2023/09/06 11:44:47;;;;;;;5.65;2.30;;;31.30;1.00;;;;;;5047517;28;20120;-79
2023/09/06 11:47:15;;;;;;;3.13;2.40;;;31.70;1.00;;;;;;5051383;28;20175;-79
2023/09/06 11:49:44;;;;;;;3.97;2.15;;;31.60;1.00;;;;;;5048671;28;20029;-79
2023/09/06 11:52:16;;;;;;;3.92;2.10;;;31.40;1.00;;;;;;5048135;28;20424;-79
2023/09/06 11:54:43;;;;;;;5.35;2.53;;;31.20;1.00;;;;;;5050354;28;20168;-80
2023/09/06 11:57:18;;;;;;;6.00;2.50;;;31.20;1.00;;;;;;5051071;28;20511;-80
2023/09/06 11:59:43;;;;;;;4.25;2.30;;;31.30;1.00;;;;;;5050564;28;20025;-80
2023/09/06 12:02:13;;;;;;;2.80;2.50;;;30.90;1.00;;;;;;5047992;28;20051;-80
2023/09/06 12:04:40;;;;;;;3.15;2.33;;;31.10;1.00;;;;;;5051527;28;20049;-80
2023/09/06 12:07:07;;;;;;;3.00;2.30;;;30.90;1.00;;;;;;5051148;28;20021;-80
2023/09/06 12:09:35;;;;;;;5.82;2.28;;;30.90;1.00;;;;;;5049701;28;20033;-80
2023/09/06 12:12:06;;;;;;;2.30;2.10;;;31.20;1.00;;;;;;5043540;28;20022;-80
2023/09/06 12:14:32;;;;;;;2.50;2.08;;;31.30;1.00;;;;;;5037947;28;20039;-80
2023/09/06 12:16:58;;;;;;;3.38;2.42;;;31.00;1.00;;;;;;5031684;28;20033;-80
2023/09/06 12:19:26;;;;;;;4.28;2.38;;;31.20;1.00;;;;;;5032722;28;20064;-76
2023/09/06 12:21:52;;;;;;;3.55;2.22;;;31.40;1.00;;;;;;5026772;28;20488;-78
2023/09/06 12:24:18;;;;;;;4.18;2.22;;;31.30;1.00;;;;;;5034090;28;20315;-79
2023/09/06 12:26:44;;;;;;;2.70;2.33;;;31.10;1.00;;;;;;5033964;28;20036;-79
2023/09/06 12:29:09;;;;;;;2.83;2.10;;;31.10;1.00;;;;;;5035157;28;20013;-79
2023/09/06 12:31:35;;;;;;;2.50;2.25;;;31.10;1.00;;;;;;5032028;28;20033;-76
2023/09/06 12:34:03;;;;;;;2.47;2.28;;;31.30;1.00;;;;;;5032699;28;20025;-79
2023/09/06 12:36:29;;;;;;;4.57;2.40;;;31.20;1.00;;;;;;5034486;28;20025;-79
2023/09/06 12:38:54;;;;;;;3.10;2.10;;;31.50;1.00;;;;;;5033065;28;20034;-80
2023/09/06 12:41:20;;;;;;;4.28;2.20;;;31.50;1.00;;;;;;5031699;28;20045;-78
2023/09/06 12:43:46;;;;;;;2.38;2.17;;;31.50;1.00;;;;;;5030030;28;20042;-78
2023/09/06 12:46:12;;;;;;;5.95;2.70;;;31.40;1.00;;;;;;5026340;28;20033;-79
2023/09/06 12:48:37;;;;;;;4.53;2.58;;;31.40;1.00;;;;;;5034195;28;20497;-79
2023/09/06 12:51:05;;;;;;;5.43;2.65;;;31.40;1.00;;;;;;5032886;28;20033;-79
2023/09/06 12:53:32;;;;;;;6.80;2.60;;;31.40;1.00;;;;;;5032360;28;20266;-80
2023/09/06 12:55:58;;;;;;;4.53;2.58;;;31.20;1.00;;;;;;5031130;28;20553;-80
2023/09/06 12:58:23;;;;;;;2.95;2.22;;;31.30;1.00;;;;;;5032521;28;20026;-80
2023/09/06 13:00:49;;;;;;;5.60;2.53;;;31.40;1.00;;;;;;5036439;28;20041;-79
2023/09/06 13:03:15;;;;;;;4.15;2.42;;;31.20;1.00;;;;;;5026173;28;20056;-77